createdAt,value
2023-03-05T00:00:55.298Z,100007.53
2023-03-05T00:03:21.917Z,100004.41
2023-03-05T00:05:48.612Z,100001.50
2023-03-05T00:08:15.156Z,100001.53
2023-03-05T00:10:41.723Z,100002.47
2023-03-05T00:13:08.317Z,99997.47
2023-03-05T00:15:41.303Z,99995.25
2023-03-05T00:18:07.872Z,99995.31
2023-03-05T00:20:36.090Z,99997.25
2023-03-05T00:23:02.703Z,99993.94
2023-03-05T00:25:29.284Z,100001.69
2023-03-05T00:27:55.850Z,100002.25
2023-03-05T00:30:22.430Z,100005.22
2023-03-05T00:32:48.945Z,100000.84
2023-03-05T00:35:15.593Z,99993.88
2023-03-05T00:37:42.235Z,99988.59
2023-03-05T00:40:09.952Z,99977.16
2023-03-05T00:42:38.696Z,99979.06
2023-03-05T00:45:07.731Z,99986.41
2023-03-05T00:47:34.744Z,99986.97
2023-03-05T00:50:02.379Z,99982.03
2023-03-05T00:52:34.799Z,99984.88
2023-03-05T00:55:01.367Z,99982.72
2023-03-05T00:57:28.010Z,99980.56
2023-03-05T00:59:54.623Z,99974.38
2023-03-05T01:02:21.284Z,99967.03
2023-03-05T01:04:47.909Z,99976.41
2023-03-05T01:07:14.629Z,99966.44
2023-03-05T01:09:41.170Z,99972.84
2023-03-05T01:12:08.154Z,99962.75
2023-03-05T01:14:35.945Z,99977.13
2023-03-05T01:17:02.706Z,99961.41
2023-03-05T01:19:29.301Z,99961.22
2023-03-05T01:21:56.108Z,99960.00
2023-03-05T01:24:22.934Z,99963.16
2023-03-05T01:26:49.752Z,99962.66
2023-03-05T01:29:16.359Z,99965.50
2023-03-05T01:31:43.291Z,99965.97
2023-03-05T01:34:10.076Z,99973.84
2023-03-05T01:36:36.684Z,99981.16
2023-03-05T01:39:03.832Z,99986.72
2023-03-05T01:41:30.413Z,99978.22
2023-03-05T01:43:57.054Z,99981.25
2023-03-05T01:46:38.184Z,99981.16
2023-03-05T01:49:15.421Z,99981.31
2023-03-05T01:52:04.248Z,99983.44
2023-03-05T01:54:38.313Z,99984.03
2023-03-05T01:57:09.606Z,99976.53
2023-03-05T01:59:39.347Z,99980.72
2023-03-05T02:02:08.053Z,99974.31
2023-03-05T02:04:43.252Z,99982.72
2023-03-05T02:07:11.194Z,99985.41
2023-03-05T02:09:39.907Z,99984.50
2023-03-05T02:12:08.337Z,99979.13
2023-03-05T02:14:35.819Z,99986.94
2023-03-05T02:17:02.511Z,99987.78
2023-03-05T02:19:29.142Z,99987.78
2023-03-05T02:21:55.682Z,99992.47
2023-03-05T02:24:37.252Z,99988.03
2023-03-05T02:27:05.173Z,99987.84
2023-03-05T02:29:34.150Z,99988.72
2023-03-05T02:32:01.646Z,99984.94
2023-03-05T02:34:28.306Z,99986.47
2023-03-05T02:36:55.628Z,99984.59
2023-03-05T02:39:22.504Z,99983.75
2023-03-05T02:41:49.129Z,99986.69
2023-03-05T02:44:15.809Z,99984.38
2023-03-05T02:46:42.392Z,99983.28
2023-03-05T02:49:08.977Z,99984.84
2023-03-05T02:51:35.539Z,99987.53
2023-03-05T02:54:02.114Z,99984.47
2023-03-05T02:56:28.716Z,99986.16
2023-03-05T02:58:55.379Z,99975.97
2023-03-05T03:01:21.965Z,99981.91
2023-03-05T03:03:48.862Z,99978.81
2023-03-05T03:06:15.525Z,99980.50
2023-03-05T03:08:42.051Z,99989.94
2023-03-05T03:11:10.821Z,99982.28
2023-03-05T03:13:37.617Z,99982.47
2023-03-05T03:16:07.112Z,99985.75
2023-03-05T03:18:33.970Z,99978.34
2023-03-05T03:21:01.069Z,99972.50
2023-03-05T03:23:28.370Z,99975.34
2023-03-05T03:25:54.913Z,99981.72
2023-03-05T03:28:21.733Z,99972.78
2023-03-05T03:30:48.311Z,99966.53
2023-03-05T03:33:14.976Z,99972.47
2023-03-05T03:35:41.616Z,99975.25
2023-03-05T03:38:08.231Z,99978.00
2023-03-05T03:40:35.913Z,99983.06
2023-03-05T03:43:02.527Z,99984.00
2023-03-05T03:45:29.179Z,99981.44
2023-03-05T03:47:55.803Z,99978.50
2023-03-05T03:50:24.937Z,99969.19
2023-03-05T03:52:52.098Z,99971.66
2023-03-05T03:55:18.820Z,99974.47
2023-03-05T03:57:45.436Z,99972.81
2023-03-05T04:00:12.773Z,99972.97
2023-03-05T04:02:39.461Z,99971.72
2023-03-05T04:05:06.554Z,99976.38
2023-03-05T04:07:33.098Z,99972.47
2023-03-05T04:09:59.653Z,99970.09
2023-03-05T04:12:26.215Z,99969.06
2023-03-05T04:14:52.848Z,99970.59
2023-03-05T04:20:10.974Z,99967.47
2023-03-05T04:22:37.870Z,99967.69
2023-03-05T04:25:06.630Z,99968.69
2023-03-05T04:27:43.257Z,99967.19
2023-03-05T04:30:14.639Z,99962.28
2023-03-05T04:32:41.729Z,99967.03
2023-03-05T04:35:09.056Z,99972.75
2023-03-05T05:01:26.164Z,99970.94
2023-03-05T05:03:52.845Z,99972.50
2023-03-05T05:06:19.427Z,99971.44
2023-03-05T05:08:46.004Z,99981.31
2023-03-05T05:11:14.733Z,99982.63
2023-03-05T05:13:41.293Z,99986.16
2023-03-05T05:16:09.422Z,99986.50
2023-03-05T05:18:36.112Z,99993.09
2023-03-05T05:21:06.666Z,99989.88
2023-03-05T05:23:33.279Z,99989.72
2023-03-05T05:26:01.682Z,99984.44
2023-03-05T05:28:29.052Z,99990.09
2023-03-05T05:30:55.728Z,99988.97
2023-03-05T05:33:23.066Z,99988.56
2023-03-05T05:35:50.809Z,99990.41
2023-03-05T05:38:18.821Z,99991.97
2023-03-05T05:40:45.503Z,99994.75
2023-03-05T05:43:12.226Z,99994.91
2023-03-05T05:45:39.106Z,99999.97
2023-03-05T05:48:06.086Z,99997.06
2023-03-05T05:50:32.691Z,100010.94
2023-03-05T05:53:00.326Z,100009.75
2023-03-05T05:55:26.865Z,100011.34
2023-03-05T05:57:53.412Z,100019.09
2023-03-05T06:00:20.304Z,100021.28
2023-03-05T06:02:47.203Z,100020.25
2023-03-05T06:05:14.936Z,100028.19
2023-03-05T06:07:41.961Z,100026.56
2023-03-05T06:10:09.976Z,100031.88
2023-03-05T06:12:36.645Z,100032.75
2023-03-05T06:15:03.494Z,100031.75
2023-03-05T06:17:31.074Z,100036.13
2023-03-05T06:19:58.499Z,100033.13
2023-03-05T06:22:25.335Z,100025.34
2023-03-05T06:24:52.004Z,100028.09
2023-03-05T06:27:18.662Z,100030.63
2023-03-05T06:29:45.267Z,100036.84
2023-03-05T06:32:12.274Z,100035.22
2023-03-05T06:34:38.900Z,100036.28
2023-03-05T06:37:05.604Z,100043.03
2023-03-05T06:39:32.157Z,100038.75
2023-03-05T06:41:58.719Z,100050.19
2023-03-05T06:44:25.854Z,100044.25
2023-03-05T06:46:52.703Z,100044.13
2023-03-05T06:49:19.281Z,100042.03
2023-03-05T06:51:45.931Z,100052.88
2023-03-05T06:54:15.519Z,100046.91
2023-03-05T06:56:44.504Z,100046.47
2023-03-05T06:59:13.081Z,100048.34
2023-03-05T07:01:39.723Z,100052.72
2023-03-05T07:04:06.900Z,100047.44
2023-03-05T07:06:35.481Z,100051.03
2023-03-05T07:09:03.342Z,100054.34
2023-03-05T07:11:31.189Z,100054.34
2023-03-05T07:13:58.235Z,100050.56
2023-03-05T07:16:30.979Z,100051.19
2023-03-05T07:18:59.265Z,100058.69
2023-03-05T07:21:31.712Z,100048.47
2023-03-05T07:24:00.394Z,100064.41
2023-03-05T07:26:28.258Z,100052.91
2023-03-05T07:28:55.308Z,100052.19
2023-03-05T07:31:27.307Z,100061.34
2023-03-05T07:33:54.242Z,100060.63
2023-03-05T07:36:20.890Z,100056.38
2023-03-05T07:38:47.533Z,100069.19
2023-03-05T07:41:20.106Z,100063.16
2023-03-05T07:43:48.642Z,100060.03
2023-03-05T07:46:17.745Z,100061.25
2023-03-05T07:48:44.573Z,100071.81
2023-03-05T07:51:15.868Z,100068.41
2023-03-05T07:53:47.142Z,100073.97
2023-03-05T07:56:14.629Z,100062.56
2023-03-05T07:58:41.264Z,100061.03
2023-03-05T08:01:15.239Z,100060.41
2023-03-05T08:03:43.064Z,100059.63
2023-03-05T08:06:11.186Z,100059.00
2023-03-05T08:08:38.388Z,100064.38
2023-03-05T08:11:06.721Z,100067.13
2023-03-05T08:13:33.348Z,100060.78
2023-03-05T08:16:03.853Z,100070.34
2023-03-05T08:18:30.488Z,100060.28
2023-03-05T08:20:57.048Z,100062.16
2023-03-05T08:23:23.727Z,100054.22
2023-03-05T08:25:53.594Z,100051.16
2023-03-05T08:28:20.551Z,100053.41
2023-03-05T08:30:51.239Z,100045.47
2023-03-05T08:33:17.971Z,100056.38
2023-03-05T08:35:44.755Z,100059.09
2023-03-05T08:38:11.464Z,100051.06
2023-03-05T08:40:38.096Z,100052.59
2023-03-05T08:43:05.856Z,100057.78
2023-03-05T08:45:32.492Z,100046.00
2023-03-05T08:47:59.158Z,100046.72
2023-03-05T08:50:26.082Z,100032.28
2023-03-05T08:52:52.652Z,100039.88
2023-03-05T08:55:19.253Z,100037.00
2023-03-05T08:57:46.844Z,100045.22
2023-03-05T09:00:13.960Z,100041.16
2023-03-05T09:02:40.604Z,100032.97
2023-03-05T09:05:07.815Z,100029.75
2023-03-05T09:07:34.361Z,100031.03
2023-03-05T09:10:01.105Z,100025.03
2023-03-05T09:12:27.792Z,100030.09
2023-03-05T09:14:55.747Z,100018.19
2023-03-05T09:17:23.038Z,100009.63
2023-03-05T09:19:50.194Z,100013.09
2023-03-05T09:22:16.733Z,100016.03
2023-03-05T09:24:44.182Z,100021.66
2023-03-05T09:27:10.798Z,100016.47
2023-03-05T09:29:38.010Z,100022.81
2023-03-05T09:32:05.213Z,100021.34
2023-03-05T09:34:32.148Z,100028.44
2023-03-05T09:36:58.796Z,100017.13
2023-03-05T09:39:25.459Z,100032.69
2023-03-05T09:42:09.835Z,100026.78
2023-03-05T09:45:04.435Z,100027.34
2023-03-05T09:48:12.068Z,100034.16
2023-03-05T09:50:51.199Z,100028.19
2023-03-05T09:53:23.531Z,100025.19
2023-03-05T09:55:56.447Z,100026.94
2023-03-05T09:58:43.810Z,100028.50
2023-03-05T10:01:18.816Z,100024.88
2023-03-05T10:03:51.558Z,100026.56
2023-03-05T10:06:30.207Z,100025.25
2023-03-05T10:09:04.232Z,100024.44
2023-03-05T10:11:36.705Z,100013.81
2023-03-05T10:14:04.550Z,100014.13
2023-03-05T10:16:46.155Z,100016.28
2023-03-05T10:19:34.691Z,100012.84
2023-03-05T10:22:23.609Z,100019.25
2023-03-05T10:25:03.077Z,100006.34
2023-03-05T10:27:32.628Z,99996.47
2023-03-05T10:30:06.316Z,99999.28
2023-03-05T10:32:54.274Z,99995.13
2023-03-05T10:35:58.665Z,99996.88
2023-03-05T10:38:25.460Z,99995.28
2023-03-05T10:40:55.521Z,99999.97
2023-03-05T10:43:23.297Z,99998.81
2023-03-05T10:45:54.541Z,99985.56
2023-03-05T10:48:53.445Z,99986.59
2023-03-05T10:51:29.280Z,99984.44
2023-03-05T10:54:05.000Z,99975.19
2023-03-05T10:56:31.972Z,99973.31
2023-03-05T10:58:58.605Z,99962.28
2023-03-05T11:01:28.771Z,99955.34
2023-03-05T11:03:57.282Z,99958.34
2023-03-05T11:06:38.172Z,99953.28
2023-03-05T11:09:24.644Z,99946.84
2023-03-05T11:12:00.410Z,99946.66
2023-03-05T11:14:33.171Z,99931.28
2023-03-05T11:17:01.416Z,99929.91
2023-03-05T11:19:37.692Z,99929.56
2023-03-05T11:22:14.308Z,99933.56
2023-03-05T11:24:41.838Z,99926.53
2023-03-05T11:27:32.598Z,99923.34
2023-03-05T11:29:59.664Z,99921.75
2023-03-05T11:32:29.032Z,99918.03
2023-03-05T11:34:57.486Z,99905.78
2023-03-05T11:37:31.928Z,99908.38
2023-03-05T11:40:10.689Z,99907.34
2023-03-05T11:42:40.814Z,99911.66
2023-03-05T11:45:16.567Z,99908.31
2023-03-05T11:47:48.592Z,99898.28
2023-03-05T11:50:28.220Z,99896.31
2023-03-05T11:53:17.932Z,99891.47
2023-03-05T11:55:48.725Z,99885.81
2023-03-05T11:58:34.113Z,99880.22
2023-03-05T12:01:01.657Z,99874.69
2023-03-05T12:03:37.495Z,99877.09
2023-03-05T12:06:37.610Z,99875.53
2023-03-05T12:09:29.240Z,99869.72
2023-03-05T12:12:18.285Z,99861.22
2023-03-05T12:14:52.287Z,99860.19
2023-03-05T12:17:40.084Z,99860.28
2023-03-05T12:20:10.976Z,99856.75
2023-03-05T12:22:39.993Z,99862.44
2023-03-05T12:25:25.371Z,99861.84
2023-03-05T12:27:51.958Z,99853.63
2023-03-05T12:30:33.775Z,99847.25
2023-03-05T12:33:02.247Z,99855.50
2023-03-05T12:35:37.181Z,99847.72
2023-03-05T12:38:30.058Z,99848.94
2023-03-05T12:41:28.055Z,99842.25
2023-03-05T12:44:08.865Z,99841.97
2023-03-05T12:47:23.417Z,99844.44
2023-03-05T12:49:50.213Z,99825.50
2023-03-05T12:52:24.767Z,99824.81
2023-03-05T12:55:20.370Z,99823.13
2023-03-05T12:57:57.440Z,99812.47
2023-03-05T13:00:33.847Z,99829.97
2023-03-05T13:03:04.286Z,99820.94
2023-03-05T13:05:37.070Z,99834.75
2023-03-05T13:08:12.885Z,99826.78
2023-03-05T13:10:41.041Z,99823.72
2023-03-05T13:13:14.863Z,99817.13
2023-03-05T13:15:46.569Z,99817.81
2023-03-05T13:18:24.880Z,99821.91
2023-03-05T13:21:05.666Z,99814.34
2023-03-05T13:23:34.183Z,99819.88
2023-03-05T13:26:15.237Z,99812.47
2023-03-05T13:28:47.318Z,99818.34
2023-03-05T13:31:21.358Z,99812.69
2023-03-05T13:33:54.301Z,99804.69
2023-03-05T13:36:23.113Z,99808.31
2023-03-05T13:38:53.376Z,99805.41
2023-03-05T13:41:21.927Z,99813.03
2023-03-05T13:44:01.066Z,99808.16
2023-03-05T13:46:34.286Z,99797.97
2023-03-05T13:49:23.455Z,99800.31
2023-03-05T13:51:57.940Z,99798.22
2023-03-05T13:54:27.267Z,99793.28
2023-03-05T13:57:04.371Z,99805.25
2023-03-05T13:59:36.591Z,99793.91
2023-03-05T14:02:20.093Z,99783.59
2023-03-05T14:04:47.654Z,99789.63
2023-03-05T14:07:20.354Z,99785.56
2023-03-05T14:09:56.692Z,99782.22
2023-03-05T14:12:40.755Z,99781.03
2023-03-05T14:15:29.422Z,99780.16
2023-03-05T14:18:15.709Z,99780.91
2023-03-05T14:21:12.563Z,99778.09
2023-03-05T14:23:44.454Z,99774.63
2023-03-05T14:26:28.818Z,99772.00
2023-03-05T14:29:24.335Z,99773.84
2023-03-05T14:32:02.193Z,99774.63
2023-03-05T14:34:32.355Z,99772.19
2023-03-05T14:37:21.879Z,99774.63
2023-03-05T14:39:54.964Z,99766.78
2023-03-05T14:42:26.993Z,99764.53
2023-03-05T14:44:55.813Z,99766.56
2023-03-05T14:47:24.336Z,99760.97
2023-03-05T14:49:51.079Z,99757.66
2023-03-05T14:52:23.946Z,99759.31
2023-03-05T14:54:52.166Z,99755.81
2023-03-05T14:57:25.203Z,99757.34
2023-03-05T14:59:52.048Z,99758.00
2023-03-05T15:02:21.864Z,99752.03
2023-03-05T15:04:48.943Z,99756.69
2023-03-05T15:07:45.415Z,99752.59
2023-03-05T15:10:20.460Z,99757.00
2023-03-05T15:12:47.666Z,99752.25
2023-03-05T15:15:15.231Z,99746.38
2023-03-05T15:17:47.356Z,99750.53
2023-03-05T15:20:26.288Z,99741.81
2023-03-05T15:22:56.005Z,99746.69
2023-03-05T15:25:24.399Z,99747.97
2023-03-05T15:27:51.145Z,99746.91
2023-03-05T15:30:32.666Z,99746.06
2023-03-05T15:33:03.659Z,99744.94
2023-03-05T15:35:30.240Z,99749.88
2023-03-05T15:37:58.016Z,99748.88
2023-03-05T15:40:27.758Z,99739.88
2023-03-05T15:42:59.220Z,99748.00
2023-03-05T15:45:26.317Z,99741.72
2023-03-05T15:47:54.562Z,99743.56
2023-03-05T15:50:21.885Z,99741.19
2023-03-05T15:52:49.237Z,99740.94
2023-03-05T15:55:19.639Z,99739.22
2023-03-05T15:57:48.983Z,99737.59
2023-03-05T16:00:20.608Z,99739.66
2023-03-05T16:02:48.117Z,99735.22
2023-03-05T16:05:14.689Z,99737.44
2023-03-05T16:07:49.190Z,99737.03
2023-03-05T16:10:21.692Z,99738.44
2023-03-05T16:12:52.218Z,99737.84
2023-03-05T16:15:21.329Z,99731.91
2023-03-05T16:17:53.112Z,99739.06
2023-03-05T16:20:20.383Z,99734.03
2023-03-05T16:22:47.201Z,99736.59
2023-03-05T16:25:13.857Z,99745.50
2023-03-05T16:27:43.130Z,99737.91
2023-03-05T16:30:10.496Z,99745.19
2023-03-05T16:32:38.985Z,99747.56
2023-03-05T16:35:06.394Z,99752.00
2023-03-05T16:37:33.142Z,99748.50
2023-03-05T16:39:59.832Z,99744.59
2023-03-05T16:42:26.811Z,99752.91
2023-03-05T16:44:54.263Z,99754.16
2023-03-05T16:47:20.932Z,99748.22
2023-03-05T16:49:47.508Z,99748.56
2023-03-05T16:52:19.128Z,99753.59
2023-03-05T16:54:47.010Z,99758.47
2023-03-05T16:57:14.238Z,99758.47
2023-03-05T16:59:41.551Z,99764.25
2023-03-05T17:02:08.295Z,99759.09
2023-03-05T17:04:38.420Z,99763.25
2023-03-05T17:07:05.589Z,99762.66
2023-03-05T17:09:32.216Z,99759.38
2023-03-05T17:14:54.226Z,99768.09
2023-03-05T17:17:20.833Z,99763.97
2023-03-05T17:19:48.110Z,99766.34
2023-03-05T17:22:16.256Z,99767.00
2023-03-05T17:24:42.956Z,99772.09
2023-03-05T17:27:10.410Z,99769.84
2023-03-05T17:29:37.096Z,99775.28
2023-03-05T17:32:03.939Z,99768.84
2023-03-05T17:34:36.320Z,99772.97
2023-03-05T17:37:06.192Z,99764.94
2023-03-05T17:39:33.506Z,99775.38
2023-03-05T17:42:00.465Z,99767.47
2023-03-05T17:44:27.106Z,99761.38
2023-03-05T17:46:53.673Z,99762.66
2023-03-05T17:49:20.288Z,99762.88
2023-03-05T17:51:47.054Z,99769.53
2023-03-05T17:54:13.790Z,99757.22
2023-03-05T17:56:40.348Z,99762.59
2023-03-05T17:59:06.972Z,99761.00
2023-03-05T18:01:34.985Z,99763.06
2023-03-05T18:04:01.820Z,99764.47
2023-03-05T18:06:29.131Z,99759.56
2023-03-05T18:08:55.679Z,99767.03
2023-03-05T18:11:22.429Z,99764.03
2023-03-05T18:13:52.227Z,99764.25
2023-03-05T18:16:18.953Z,99763.25
2023-03-05T18:18:45.692Z,99752.53
2023-03-05T18:21:12.260Z,99766.94
2023-03-05T18:23:38.838Z,99760.34
2023-03-05T18:26:05.498Z,99761.41
2023-03-05T18:28:32.276Z,99766.41
2023-03-05T18:30:58.915Z,99766.63
2023-03-05T18:33:25.939Z,99763.38
2023-03-05T18:35:53.334Z,99769.13
2023-03-05T18:38:21.628Z,99766.50
2023-03-05T18:40:51.251Z,99765.44
2023-03-05T18:43:20.668Z,99764.31
2023-03-05T18:45:49.227Z,99756.66
2023-03-05T18:48:15.892Z,99756.72
2023-03-05T18:50:43.030Z,99756.84
2023-03-05T18:53:13.071Z,99760.00
2023-03-05T18:55:42.771Z,99764.97
2023-03-05T18:58:10.115Z,99763.97
2023-03-05T19:00:36.735Z,99771.34
2023-03-05T19:03:03.634Z,99767.97
2023-03-05T19:05:30.686Z,99767.13
2023-03-05T19:07:57.337Z,99769.50
2023-03-05T19:10:24.166Z,99770.50
2023-03-05T19:13:08.107Z,99767.91
2023-03-05T19:15:34.691Z,99770.38
2023-03-05T19:18:01.324Z,99771.91
2023-03-05T19:20:28.035Z,99767.13
2023-03-05T19:22:55.786Z,99764.16
2023-03-05T19:25:23.077Z,99768.41
2023-03-05T19:27:49.653Z,99765.25
2023-03-05T19:30:16.748Z,99771.13
2023-03-05T19:32:43.577Z,99765.06
2023-03-05T19:35:13.980Z,99776.97
2023-03-05T19:37:40.508Z,99770.59
2023-03-05T19:40:07.788Z,99775.66
2023-03-05T19:42:36.210Z,99778.59
2023-03-05T19:45:02.972Z,99780.72
2023-03-05T19:47:29.668Z,99788.81
2023-03-05T19:49:56.257Z,99792.72
2023-03-05T19:52:23.896Z,99786.06
2023-03-05T19:54:51.419Z,99798.31
2023-03-05T19:57:17.951Z,99791.03
2023-03-05T19:59:46.153Z,99794.63
2023-03-05T20:02:14.513Z,99785.13
2023-03-05T20:04:41.076Z,99782.63
2023-03-05T20:07:07.618Z,99781.53
2023-03-05T20:09:34.271Z,99786.53
2023-03-05T20:12:04.672Z,99782.69
2023-03-05T20:14:31.474Z,99779.91
2023-03-05T20:16:58.087Z,99784.25
2023-03-05T20:19:24.980Z,99775.78
2023-03-05T20:21:51.586Z,99788.19
2023-03-05T20:24:19.958Z,99787.41
2023-03-05T20:26:47.553Z,99792.00
2023-03-05T20:29:17.629Z,99791.88
2023-03-05T20:31:47.260Z,99787.84
2023-03-05T20:34:17.144Z,99785.44
2023-03-05T20:36:48.108Z,99787.75
2023-03-05T20:39:22.859Z,99792.78
2023-03-05T20:41:52.046Z,99788.53
2023-03-05T20:44:21.691Z,99791.72
2023-03-05T20:47:16.346Z,99793.25
2023-03-05T20:49:43.798Z,99784.28
2023-03-05T20:52:11.450Z,99786.88
2023-03-05T20:54:38.306Z,99785.25
2023-03-05T20:57:07.535Z,99793.03
2023-03-05T20:59:34.111Z,99788.16
2023-03-05T21:02:01.816Z,99786.78
2023-03-05T21:04:28.414Z,99787.00
2023-03-05T21:06:55.054Z,99788.06
2023-03-05T21:09:22.867Z,99782.97
2023-03-05T21:11:49.520Z,99790.66
2023-03-05T21:14:16.075Z,99785.78
2023-03-05T21:16:42.829Z,99780.78
2023-03-05T21:19:09.469Z,99786.56
2023-03-05T21:21:35.987Z,99778.44
2023-03-05T21:24:02.582Z,99773.13
2023-03-05T21:26:29.168Z,99769.91
2023-03-05T21:28:56.041Z,99771.94
2023-03-05T21:31:23.279Z,99773.13
2023-03-05T21:33:50.055Z,99776.44
2023-03-05T21:36:18.942Z,99775.63
2023-03-05T21:38:49.912Z,99766.75
2023-03-05T21:41:18.316Z,99778.91
2023-03-05T21:43:45.240Z,99778.38
2023-03-05T21:46:12.223Z,99773.56
2023-03-05T21:48:38.985Z,99773.53
2023-03-05T21:52:04.563Z,99765.28
2023-03-05T21:54:31.195Z,99762.09
2023-03-05T21:56:57.818Z,99760.25
2023-03-05T21:59:24.365Z,99753.00
2023-03-05T22:01:52.553Z,99758.25
2023-03-05T22:04:19.273Z,99755.78
2023-03-05T22:06:45.826Z,99746.41
2023-03-05T22:09:12.515Z,99753.84
2023-03-05T22:11:42.636Z,99752.47
2023-03-05T22:14:10.123Z,99744.44
2023-03-05T22:16:37.571Z,99744.75
2023-03-05T22:19:05.478Z,99744.97
2023-03-05T22:21:32.295Z,99736.84
2023-03-05T22:23:59.125Z,99744.38
2023-03-05T22:26:32.783Z,99738.34
2023-03-05T22:28:59.396Z,99743.81
2023-03-05T22:31:27.626Z,99732.59
2023-03-05T22:33:54.417Z,99736.28
2023-03-05T22:36:21.302Z,99737.72
2023-03-05T22:38:47.937Z,99738.56
2023-03-05T22:41:16.782Z,99740.44
2023-03-05T22:43:43.420Z,99726.72
2023-03-05T22:46:14.449Z,99736.78
2023-03-05T22:48:42.815Z,99730.56
2023-03-05T22:51:15.311Z,99741.25
2023-03-05T22:53:43.939Z,99729.69
2023-03-05T22:56:15.761Z,99725.06
2023-03-05T22:58:42.727Z,99727.19
2023-03-05T23:01:17.266Z,99728.06
2023-03-05T23:04:40.093Z,99732.16
2023-03-05T23:07:06.834Z,99725.25
2023-03-05T23:09:33.406Z,99724.91
2023-03-05T23:12:00.006Z,99730.22
2023-03-05T23:14:26.585Z,99726.91
2023-03-05T23:16:53.146Z,99725.63
2023-03-05T23:19:19.803Z,99724.38
2023-03-05T23:21:46.331Z,99725.94
2023-03-05T23:24:13.057Z,99716.00
2023-03-05T23:26:39.645Z,99718.78
2023-03-05T23:29:06.212Z,99723.25
2023-03-05T23:31:32.855Z,99717.25
2023-03-05T23:33:59.459Z,99716.66
2023-03-05T23:36:26.243Z,99719.75
2023-03-05T23:38:57.512Z,99721.53
2023-03-05T23:41:24.066Z,99713.47
2023-03-05T23:43:50.667Z,99718.47
2023-03-05T23:46:17.383Z,99714.94
2023-03-05T23:48:44.090Z,99713.75
2023-03-05T23:51:11.356Z,99717.22
2023-03-05T23:53:37.967Z,99715.69
2023-03-05T23:56:10.176Z,99717.34
2023-03-05T23:58:37.500Z,99717.75
